Latest Weather Observations for Montague Island

IDN60901

Issued at 3:45 pm EST Friday 19 September 2014 (issued every 10 minutes, with the page automatically refreshed every 10 minutes)

About weather observations | Map of Canberra area stations | Latest observations for Canberra area | Other Formats
Station Details ID: 069017 Name: MONTAGUE ISLAND LIGHTHOUSE Lat: -36.25 Lon: 150.23 Height: 52.0 m
Data from the previous 72 hours. | See also: Recent months at Montague Island
Date/Time
EST
Tmp

°C
App
Tmp
°C
Dew
Point
°C
Rel
Hum
%
Delta-T

°C
Wind Press
QNH
hPa
Press
MSL
hPa
Rain
since
9 am
mm
Dir
 
Spd
km/h
Gust
km/h
Spd
kts
Gust
kts
19/03:30pm 17.5 10.3 5.1 44 6.0 SW 32 39 17 21 1018.0 1017.9 0.0
19/03:00pm 17.9 11.3 6.1 46 5.8 SSW 30 39 16 21 1018.0 1017.9 0.0
19/02:30pm 17.9 10.7 4.8 42 6.3 S 32 37 17 20 1018.0 1017.9 0.0
19/02:00pm 18.3 12.2 4.8 41 6.5 S 26 35 14 19 1018.3 1018.3 0.0
19/01:30pm 16.6 12.4 3.7 42 6.0 SSE 15 22 8 12 1018.7 1018.7 0.0
19/01:00pm 17.4 13.9 3.3 39 6.5 S 11 17 6 9 1019.0 1019.0 0.0
19/12:30pm 15.6 12.1 3.4 44 5.6 SE 11 13 6 7 1019.6 1019.6 0.0
19/12:00pm 16.1 12.4 2.2 39 6.2 S 11 15 6 8 1020.0 1020.0 0.0
19/11:30am 15.5 12.5 2.0 40 6.0 SE 7 17 4 9 1020.4 1020.4 0.0
19/11:00am 16.1 13.0 0.3 34 6.8 W 6 11 3 6 1020.7 1020.7 0.0
19/10:30am 15.7 11.3 0.3 35 6.6 WNW 13 20 7 11 1021.0 1021.0 0.0
19/10:00am 14.7 9.5 -0.2 36 6.2 WNW 17 24 9 13 1021.3 1021.3 0.0
19/09:30am 14.0 8.7 1.6 43 5.4 WNW 19 24 10 13 1021.6 1021.6 0.0
19/09:00am 13.4 8.1 1.7 45 5.0 WNW 19 26 10 14 1021.7 1021.7 0.0
19/08:30am 12.5 7.3 2.4 50 4.4 WNW 19 22 10 12 1021.9 1021.9 0.0
19/08:00am 12.2 8.5 2.1 50 4.3 WNW 11 19 6 10 1021.8 1021.8 0.0
19/07:30am 11.8 7.6 1.7 50 4.3 W 13 17 7 9 1021.7 1021.7 0.0
19/07:00am 11.3 7.3 2.6 55 3.8 WSW 13 19 7 10 1021.4 1021.4 0.0
19/06:30am 10.2 5.3 2.1 57 3.4 SW 17 22 9 12 1021.2 1021.2 0.0
19/06:00am 9.7 5.2 2.3 60 3.1 WSW 15 19 8 10 1020.8 1020.8 0.0
19/05:30am 9.9 4.6 1.8 57 3.4 SW 19 22 10 12 1020.7 1020.7 0.0
19/05:00am 10.0 5.8 4.0 66 2.6 WSW 15 20 8 11 1020.3 1020.3 0.0
19/04:30am 9.9 6.7 3.2 63 2.9 SW 9 13 5 7 1019.9 1019.9 0.0
19/04:00am 9.8 5.6 3.8 66 2.6 W 15 19 8 10 1019.8 1019.8 0.0
19/03:30am 9.9 4.5 2.5 60 3.2 W 20 24 11 13 1019.7 1019.7 0.0
19/03:00am 10.4 5.2 2.5 58 3.4 WNW 19 24 10 13 1019.6 1019.6 0.0
19/02:30am 10.8 6.6 3.6 61 3.2 WNW 15 22 8 12 1019.7 1019.7 0.0
19/02:00am 10.7 7.0 2.5 57 3.5 W 11 15 6 8 1020.0 1020.0 0.0
19/01:30am 10.9 6.9 3.0 58 3.4 WSW 13 17 7 9 1020.2 1020.2 0.0
19/01:00am 11.3 6.6 3.1 57 3.6 SW 17 20 9 11 1020.4 1020.4 0.0
19/12:30am 11.3 6.7 3.6 59 3.4 WSW 17 22 9 12 1020.4 1020.4 0.0
19/12:00am 11.7 6.0 2.7 54 3.9 SW 22 28 12 15 1020.3 1020.3 0.0
 
Date/Time
EST
Tmp

°C
App
Tmp
°C
Dew
Point
°C
Rel
Hum
%
Delta-T

°C
Wind Press
QNH
hPa
Press
MSL
hPa
Rain
since
9 am
mm
Dir
 
Spd
km/h
Gust
km/h
Spd
kts
Gust
kts
18/11:30pm 11.9 5.9 3.2 55 3.8 SW 24 30 13 16 1020.2 1020.2 0.0
18/11:00pm 11.9 5.9 3.2 55 3.8 SW 24 30 13 16 1020.4 1020.4 0.0
18/10:30pm 12.1 4.8 2.6 52 4.1 SW 30 35 16 19 1020.4 1020.4 0.0
18/10:00pm 12.4 3.2 3.4 54 4.0 SW 41 48 22 26 1020.3 1020.3 0.0
18/09:30pm 12.7 4.1 4.9 59 3.6 SW 39 48 21 26 1020.2 1020.2 0.0
18/09:00pm 12.7 5.4 4.4 57 3.8 SSW 32 43 17 23 1020.3 1020.3 0.0
18/08:30pm 12.9 4.9 3.8 54 4.1 SSW 35 43 19 23 1020.0 1020.0 0.0
18/08:00pm 13.2 4.4 3.8 53 4.2 SSW 39 48 21 26 1019.7 1019.7 0.0
18/07:30pm 13.5 5.1 3.6 51 4.5 SSW 37 46 20 25 1019.5 1019.5 0.0
18/07:00pm 13.8 6.8 3.9 51 4.5 SSW 30 35 16 19 1019.1 1019.1 0.0
18/06:30pm 14.1 6.7 4.1 51 4.6 S 32 35 17 19 1018.8 1018.8 0.0
18/06:00pm 14.6 6.6 1.8 42 5.6 SSW 33 41 18 22 1018.4 1018.4 0.0
18/05:30pm 15.0 7.2 2.9 44 5.5 SW 33 43 18 23 1017.9 1017.8 0.0
18/05:00pm 15.3 7.3 0.7 37 6.3 SW 32 41 17 22 1017.6 1017.5 0.0
18/04:30pm 15.0 9.7 5.0 51 4.7 S 22 28 12 15 1017.5 1017.4 0.0
18/04:00pm 16.0 7.8 0.6 35 6.7 SSW 33 43 18 23 1017.1 1017.0 0.0
18/03:30pm 16.2 7.9 -0.1 33 7.0 SSW 33 44 18 24 1016.8 1016.7 0.0
18/03:00pm 16.0 7.5 0.6 35 6.7 SSW 35 43 19 23 1016.6 1016.5 0.0
18/02:30pm 16.3 7.8 1.2 36 6.6 SSW 35 44 19 24 1016.5 1016.4 0.0
18/02:00pm 16.8 8.5 2.4 38 6.5 SW 35 44 19 24 1016.4 1016.3 0.0
18/01:30pm 16.6 9.1 1.5 36 6.7 SSW 30 37 16 20 1016.6 1016.5 0.0
18/01:00pm 16.6 8.6 0.3 33 7.0 SW 32 41 17 22 1016.8 1016.7 0.0
18/12:30pm 16.1 7.6 1.0 36 6.6 SW 35 50 19 27 1017.0 1016.9 0.0
18/12:00pm 15.7 6.3 -0.1 34 6.7 SW 39 46 21 25 1017.1 1017.0 0.0
18/11:30am 16.1 8.2 1.0 36 6.6 SW 32 43 17 23 1017.3 1017.2 0.0
18/11:00am 15.4 6.9 0.8 37 6.3 SW 35 46 19 25 1017.5 1017.4 0.0
18/10:30am 15.2 6.0 1.0 38 6.2 WSW 39 54 21 29 1017.3 1017.2 0.0
18/10:00am 15.1 7.2 2.3 42 5.7 SW 33 44 18 24 1017.8 1017.7 0.0
18/09:30am 14.2 6.8 1.8 43 5.4 WSW 30 39 16 21 1017.8 1017.7 0.0
18/09:00am 13.4 3.8 1.1 43 5.2 WSW 41 52 22 28 1017.4 1017.3 0.0
18/08:30am 12.7 4.7 0.1 42 5.2 WSW 32 39 17 21 1017.4 1017.3 0.0
18/08:00am 12.5 5.7 0.9 45 4.9 WSW 26 35 14 19 1017.3 1017.2 0.0
18/07:30am 12.2 6.3 1.5 48 4.6 WSW 22 28 12 15 1017.2 1017.1 0.0
18/07:00am 11.7 3.8 1.1 48 4.4 WSW 32 37 17 20 1016.5 1016.4 0.0
18/06:30am 11.4 3.5 1.1 49 4.3 WSW 32 41 17 22 1015.9 1015.8 0.0
18/06:00am 10.9 3.8 1.2 51 4.0 W 28 37 15 20 1015.7 1015.6 0.0
18/05:30am 11.1 3.5 0.5 48 4.4 WSW 30 35 16 19 1015.5 1015.4 0.0
18/05:00am 11.1 3.9 0.8 49 4.3 WSW 28 33 15 18 1015.3 1015.2 0.0
18/04:30am 11.1 3.0 0.8 49 4.3 WSW 33 41 18 22 1014.9 1014.8 0.0
18/04:00am 11.4 3.9 1.4 50 4.2 WSW 30 43 16 23 1014.7 1014.6 0.0
18/03:30am 11.1 5.0 0.5 48 4.4 WSW 22 30 12 16 1014.5 1014.4 0.0
18/03:00am 11.0 4.9 0.7 49 4.3 W 22 28 12 15 1014.3 1014.2 0.0
18/02:30am 10.8 4.8 1.1 51 4.0 WSW 22 30 12 16 1014.4 1014.3 0.0
18/02:00am 10.9 3.4 0.9 50 4.1 WSW 30 35 16 19 1014.3 1014.2 0.0
18/01:30am 11.2 2.4 1.2 50 4.2 WSW 37 44 20 24 1014.4 1014.3 0.0
18/01:00am 11.4 2.2 1.4 50 4.2 SW 39 44 21 24 1014.4 1014.3 0.0
18/12:30am 11.5 1.0 1.2 49 4.3 SW 46 57 25 31 1014.1 1014.0 0.0
18/12:00am 11.4 1.4 1.9 52 4.1 SW 44 54 24 29 1014.3 1014.2 0.0
 
Date/Time
EST
Tmp

°C
App
Tmp
°C
Dew
Point
°C
Rel
Hum
%
Delta-T

°C
Wind Press
QNH
hPa
Press
MSL
hPa
Rain
since
9 am
mm
Dir
 
Spd
km/h
Gust
km/h
Spd
kts
Gust
kts
17/11:30pm 11.8 0.1 3.1 55 3.8 SW 54 65 29 35 1013.7 1013.6 0.0
17/11:00pm 11.8 -0.8 3.8 58 3.6 SW 59 74 32 40 1013.4 1013.3 0.0
17/10:30pm 11.8 0.4 4.8 62 3.2 SW 54 65 29 35 1013.4 1013.3 0.0
17/10:00pm 12.6 1.6 6.6 67 2.9 SSW 54 67 29 36 1012.6 1012.6 0.0
17/09:58pm 12.7 1.7 6.7 67 2.9 SW 54 63 29 34 1012.6 1012.6 0.0
17/09:30pm 13.0 3.4 9.3 78 1.9 S 50 57 27 31 1012.3 1012.3 0.0
17/09:24pm 13.6 7.6 10.2 80 1.8 S 32 54 17 29 1012.2 1012.2 0.0
17/09:00pm 13.2 5.7 9.3 77 2.0 S 39 50 21 27 1012.1 1012.1 0.0
17/08:40pm 13.6 6.6 10.0 79 1.9 S 37 50 20 27 1011.7 1011.7 0.0
17/08:30pm 14.0 8.0 10.0 77 2.1 SE 32 41 17 22 1011.7 1011.7 0.0
17/08:15pm 15.3 9.6 9.9 70 2.8 E 30 33 16 18 1011.4 1011.4 0.0
17/08:00pm 15.8 14.1 5.7 51 4.9 NW 4 7 2 4 1011.2 1011.2 0.0
17/07:30pm 15.7 13.1 4.4 47 5.3 SSW 7 15 4 8 1010.6 1010.6 0.0
17/07:00pm 15.9 11.1 4.9 48 5.2 WNW 19 24 10 13 1010.1 1010.1 0.0
17/06:30pm 16.5 10.5 5.2 47 5.4 WNW 26 32 14 17 1009.6 1009.6 0.0
17/06:00pm 16.9 9.9 4.3 43 5.9 W 30 41 16 22 1009.1 1009.1 0.0
17/05:30pm 15.8 12.1 10.3 70 2.9 NNE 20 28 11 15 1009.1 1009.1 0.0
17/05:00pm 15.6 11.3 9.3 66 3.3 NNE 22 26 12 14 1008.8 1008.8 0.0
17/04:30pm 15.5 11.2 9.4 67 3.2 NE 22 30 12 16 1008.5 1008.5 0.0
17/04:00pm 15.9 11.7 9.8 67 3.2 NE 22 28 12 15 1008.3 1008.3 0.0
17/03:30pm 15.8 11.4 9.0 64 3.5 NE 22 26 12 14 1008.0 1008.0 0.0
17/03:00pm 15.9 11.5 7.4 57 4.2 ENE 20 24 11 13 1007.9 1007.9 0.0
17/02:30pm 15.9 12.3 8.2 60 3.9 E 17 22 9 12 1007.9 1007.9 0.0
17/02:00pm 15.9 12.1 7.7 58 4.1 E 17 20 9 11 1007.9 1007.9 0.0
17/01:30pm 16.5 12.7 7.4 55 4.6 E 17 20 9 11 1008.0 1008.0 0.0
17/01:00pm 16.6 13.6 7.8 56 4.5 E 13 17 7 9 1008.1 1008.1 0.0
17/12:30pm 16.2 13.1 7.2 55 4.5 E 13 19 7 10 1008.3 1008.3 0.0
17/12:00pm 16.5 14.1 7.2 54 4.6 E 9 13 5 7 1008.6 1008.6 0.0
17/11:30am 16.4 13.7 7.3 55 4.5 SSE 11 15 6 8 1008.8 1008.8 0.0
17/11:00am 16.5 14.0 8.2 58 4.2 SSE 11 15 6 8 1009.2 1009.2 0.0
17/10:30am 16.1 13.2 8.1 59 4.0 SSE 13 19 7 10 1009.5 1009.5 0.0
17/10:00am 15.9 13.7 7.9 59 4.0 SE 9 13 5 7 1009.8 1009.8 0.0
17/09:30am 16.3 13.7 7.8 57 4.3 SSW 11 17 6 9 1010.1 1010.1 0.0
17/09:00am 15.9 12.9 7.9 59 4.0 SW 13 19 7 10 1010.3 1010.3 0.4
17/08:30am 14.7 11.5 8.6 67 3.1 SW 15 20 8 11 1010.5 1010.5 0.4
17/08:00am 14.1 11.3 8.5 69 2.8 SW 13 19 7 10 1010.5 1010.5 0.4
17/07:30am 14.7 11.7 9.1 69 2.9 SW 15 19 8 10 1010.2 1010.2 0.4
17/07:00am 14.1 10.5 8.3 68 2.9 SSW 17 24 9 13 1009.9 1009.9 0.4
17/06:30am 13.9 11.2 9.1 73 2.4 SSW 13 19 7 10 1009.6 1009.6 0.4
17/06:00am 13.8 10.3 8.6 71 2.6 SSW 17 20 9 11 1009.4 1009.4 0.4
17/05:30am 13.9 10.1 8.9 72 2.5 SSW 19 22 10 12 1009.2 1009.2 0.4
17/05:00am 13.7 10.1 8.5 71 2.6 SSW 17 22 9 12 1008.8 1008.8 0.4
17/04:30am 13.8 9.7 8.8 72 2.5 SSW 20 26 11 14 1008.4 1008.4 0.4
17/04:00am 13.9 10.6 9.7 76 2.2 SSW 17 19 9 10 1008.2 1008.2 0.4
17/03:30am 14.0 10.9 10.4 79 1.9 SSW 17 20 9 11 1008.0 1008.0 0.4
17/03:00am 13.9 10.7 11.2 84 1.4 SW 19 22 10 12 1007.8 1007.8 0.4
17/02:30am 14.1 12.2 11.8 86 1.2 SW 13 17 7 9 1008.0 1008.0 0.4
17/02:00am 14.2 11.8 11.5 84 1.4 SW 15 19 8 10 1008.0 1008.0 0.4
17/01:30am 14.6 12.3 11.7 83 1.6 SSW 15 19 8 10 1008.1 1008.1 0.4
17/01:00am 14.7 11.4 11.7 82 1.6 SSW 20 24 11 13 1008.1 1008.1 0.4
17/12:30am 14.7 11.7 12.6 87 1.2 SSW 20 24 11 13 1008.0 1008.0 0.4
17/12:00am 14.5 11.6 12.4 87 1.1 SW 19 22 10 12 1007.8 1007.8 0.4
 
Date/Time
EST
Tmp

°C
App
Tmp
°C
Dew
Point
°C
Rel
Hum
%
Delta-T

°C
Wind Press
QNH
hPa
Press
MSL
hPa
Rain
since
9 am
mm
Dir
 
Spd
km/h
Gust
km/h
Spd
kts
Gust
kts
16/11:30pm 14.5 10.6 12.0 85 1.4 WSW 24 28 13 15 1007.5 1007.5 0.4
16/11:00pm 14.5 9.8 12.0 85 1.4 SW 28 33 15 18 1007.4 1007.4 0.4
16/10:30pm 14.4 10.0 12.8 90 0.9 SW 28 32 15 17 1007.7 1007.7 0.4
16/10:00pm 14.3 10.7 12.9 91 0.8 SW 24 30 13 16 1007.6 1007.6 0.4
16/09:30pm 14.4 8.2 12.6 89 1.0 SW 37 46 20 25 1007.9 1007.9 0.4
16/09:00pm 14.9 10.7 13.6 92 0.7 SSW 28 41 15 22 1007.3 1007.3 0.4
16/08:30pm 15.0 11.5 13.4 90 0.9 SSW 24 32 13 17 1007.2 1007.2 0.4
16/08:00pm 15.2 11.8 13.7 91 0.8 S 24 30 13 16 1007.0 1007.0 0.4
16/07:30pm 15.2 11.6 14.1 93 0.6 SW 26 32 14 17 1006.2 1006.2 0.4
16/07:00pm 15.7 15.5 14.6 93 0.6 S 9 13 5 7 1005.8 1005.8 0.4
16/06:30pm 15.9 14.3 14.9 94 0.6 S 17 24 9 13 1005.5 1005.5 0.4
16/06:00pm 16.5 14.5 14.9 90 0.9 SW 19 32 10 17 1005.3 1005.3 0.4
16/05:30pm 17.1 15.3 15.4 90 1.0 NNE 19 22 10 12 1004.8 1004.8 0.4
16/05:00pm 16.9 15.7 15.1 89 1.0 NNW 15 20 8 11 1004.9 1004.9 0.4
16/04:30pm 17.0 13.6 14.8 87 1.3 NNE 26 32 14 17 1004.4 1004.4 0.0
16/04:00pm 16.9 11.7 14.5 86 1.4 NE 35 43 19 23 1004.2 1004.2 0.0

Latest Capital City Observations: Canberra | Sydney | Melbourne | Brisbane | Adelaide | Perth | Hobart | Darwin

Other Formats:

Comma delimited format used in spreadsheet applications
http://www.bom.gov.au/fwo/IDN60903/IDN60903.94939.axf

JavaScript Object Notation format (JSON) in row-major order
http://www.bom.gov.au/fwo/IDN60903/IDN60903.94939.json